Addison, ME

4:04 AM EDT on August 29, 2014 (GMT -0400)
Jonesport | Change Station
CLOSE
Current Station
Personal Weather Station
Location: Jonesport, ME
Elevation: 30 ft
Nearby Weather Stations
Active Advisory: High Surf Advisory

Elev 30 ft 44.56 °N, 67.63 °W | Updated 4 seconds ago

Overcast
Overcast
55.3 °F
Feels Like 55.3 °F
N
0.0
Wind Variable Wind from NNW
Gusts 0.0 mph

Today
High -- | Low -- °F
--% Chance of Precip.
Yesterday
High -- | Low -- °F
Precip. -- in
5:49 AM 7:12 PM
Waxing Crescent, 13% visible
Pressure 29.98 in
Visibility 10.0 miles
Clouds Mostly Cloudy 2000 ft
Overcast 2600 ft
Dew Point 53 °F
Humidity 92%
Rainfall 0.00 in
Snow Depth Not available.
UV 0 out of 12
Pollen 7.10 out of 12
Ozone Good
Flu Activity Not available.
METAR KBHB 290755Z 36008G14KT 320V020 10SM BKN020 OVC026 14/12 A2998 RMK AO1

More Conditions Fewer Conditions

Pressure 29.98 in
Visibility 10.0 miles
Clouds Mostly Cloudy 2000 ft
Overcast 2600 ft
Dew Point 53 °F
Humidity 92%
Rainfall 0.00 in
Snow Depth Not available.
UV 0 out of 12
Pollen 7.10 out of 12
Ozone Good
Flu Activity Not available.
METAR KBHB 290755Z 36008G14KT 320V020 10SM BKN020 OVC026 14/12 A2998 RMK AO1

More Conditions Fewer Conditions

10-Day Weather Forecast

Almanac

Astronomy

Aug. 29, 2014 Rise Set
Actual Time 5:49 AM EDT 7:12 PM EDT
Civil Twilight 5:19 AM EDT 7:43 PM EDT
Nautical Twilight 4:42 AM EDT 8:19 PM EDT
Astronomical Twilight 4:03 AM EDT 8:58 PM EDT
Moon 9:46 AM EDT 8:56 PM EDT
Length of Visible Light 14h 23m
Length of Day
13h 23m
Tomorrow will be 2m 57s shorter.
Waxing Crescent, 13% of the Moon is Illuminated
Today
Waxing Crescent
Sep 2
First Quarter
Sep 8
Full
Sep 15
Last Quarter
Sep 24
New

Today's Extremes

State Highs State Lows

Community

WunderPhotos

Upload Photos

1,748,197 photos uploaded!

Nearby

Air Quality

  Air Quality AQ Index Pollutant
Yesterday Good
OZONE
Current Good
OZONE
Friday Good
OZONE
Friday Good
PM2.5
Saturday Good
OZONE
Saturday Good
PM2.5

Snow Depth

Station Depth Elevation
No new snow has been reported.

Earthquake Activity

City Distance Mag. Time & Date
No recent earthquake activity has been reported nearby.
Minimum magnitude displayed is 2.5.

Coastal Water Temperatures

Place Temperature
Eastport, ME 54.0 °F
Bar Harbor, ME 62.1 °F

Nearby Weather Stations